Terminal Aerodrome Forecast
Issued by NWS

Home | Current Version | Previous Version | Text Only | Print | Product List | Glossary On
Versions: 1 2 3 4 5 6 7 8 9 10 11 12 13 14 15 16 17 18 19 20 21 22 23 24 25 26 27 28 29 30
000
FTUS45 KSLC 231727
TAFENV
TAF
KENV 231727Z 2318/2418 19007KT P6SM VCSH SCT100 BKN120
     FM231900 12007KT P6SM SCT100 SCT120
     FM232200 24012KT P6SM SCT100 BKN120
     FM240300 24010KT P6SM SCT080 BKN150=

USA.gov is the U.S. government's official web portal to all federal, state and local government web resources and services.